sensor_id;sensor_type;location;lat;lon;timestamp;temperature;humidity
14182;DHT22;7171;50.936;6.764;2023-03-31T00:00:37;13.20;99.90
14182;DHT22;7171;50.936;6.764;2023-03-31T00:03:04;13.20;99.90
14182;DHT22;7171;50.936;6.764;2023-03-31T00:05:35;13.30;99.90
14182;DHT22;7171;50.936;6.764;2023-03-31T00:08:04;13.30;99.90
14182;DHT22;7171;50.936;6.764;2023-03-31T00:10:32;13.40;99.90
14182;DHT22;7171;50.936;6.764;2023-03-31T00:13:00;13.40;99.90
14182;DHT22;7171;50.936;6.764;2023-03-31T00:15:27;13.30;99.90
14182;DHT22;7171;50.936;6.764;2023-03-31T00:17:56;13.40;99.90
14182;DHT22;7171;50.936;6.764;2023-03-31T00:20:24;13.40;99.90
14182;DHT22;7171;50.936;6.764;2023-03-31T00:22:51;13.40;99.90
14182;DHT22;7171;50.936;6.764;2023-03-31T00:25:20;13.40;99.90
14182;DHT22;7171;50.936;6.764;2023-03-31T00:27:47;13.40;99.90
14182;DHT22;7171;50.936;6.764;2023-03-31T00:30:15;13.40;99.90
14182;DHT22;7171;50.936;6.764;2023-03-31T00:32:41;13.40;99.90
14182;DHT22;7171;50.936;6.764;2023-03-31T00:35:08;13.40;99.90
14182;DHT22;7171;50.936;6.764;2023-03-31T00:37:35;13.40;99.90
14182;DHT22;7171;50.936;6.764;2023-03-31T00:40:03;13.40;99.90
14182;DHT22;7171;50.936;6.764;2023-03-31T00:42:39;13.40;99.90
14182;DHT22;7171;50.936;6.764;2023-03-31T00:45:30;13.40;99.90
14182;DHT22;7171;50.936;6.764;2023-03-31T00:48:03;13.40;99.90
14182;DHT22;7171;50.936;6.764;2023-03-31T00:50:39;13.40;99.90
14182;DHT22;7171;50.936;6.764;2023-03-31T00:53:09;13.40;99.90
14182;DHT22;7171;50.936;6.764;2023-03-31T00:55:40;13.40;99.90
14182;DHT22;7171;50.936;6.764;2023-03-31T00:58:10;13.40;99.90
14182;DHT22;7171;50.936;6.764;2023-03-31T01:00:38;13.50;99.90
14182;DHT22;7171;50.936;6.764;2023-03-31T01:03:06;13.50;99.90
14182;DHT22;7171;50.936;6.764;2023-03-31T01:05:41;13.50;99.90
14182;DHT22;7171;50.936;6.764;2023-03-31T01:08:08;13.50;99.90
14182;DHT22;7171;50.936;6.764;2023-03-31T01:10:39;13.50;99.90
14182;DHT22;7171;50.936;6.764;2023-03-31T01:13:10;13.50;99.90
14182;DHT22;7171;50.936;6.764;2023-03-31T01:15:38;13.40;99.90
14182;DHT22;7171;50.936;6.764;2023-03-31T01:18:05;13.40;99.90
14182;DHT22;7171;50.936;6.764;2023-03-31T01:20:39;13.40;99.90
14182;DHT22;7171;50.936;6.764;2023-03-31T01:23:31;13.40;99.90
14182;DHT22;7171;50.936;6.764;2023-03-31T01:26:29;13.40;99.90
14182;DHT22;7171;50.936;6.764;2023-03-31T01:29:11;13.30;99.90
14182;DHT22;7171;50.936;6.764;2023-03-31T01:32:05;13.30;99.90
14182;DHT22;7171;50.936;6.764;2023-03-31T01:35:08;13.30;99.90
14182;DHT22;7171;50.936;6.764;2023-03-31T01:38:14;13.30;99.90
14182;DHT22;7171;50.936;6.764;2023-03-31T01:41:00;13.30;99.90
14182;DHT22;7171;50.936;6.764;2023-03-31T01:43:35;13.30;99.90
14182;DHT22;7171;50.936;6.764;2023-03-31T01:46:10;13.30;99.90
14182;DHT22;7171;50.936;6.764;2023-03-31T01:48:46;13.30;99.90
14182;DHT22;7171;50.936;6.764;2023-03-31T01:51:17;13.30;99.90
14182;DHT22;7171;50.936;6.764;2023-03-31T01:53:49;13.30;99.90
14182;DHT22;7171;50.936;6.764;2023-03-31T01:56:23;13.30;99.90
14182;DHT22;7171;50.936;6.764;2023-03-31T01:58:56;13.30;99.90
14182;DHT22;7171;50.936;6.764;2023-03-31T02:01:27;13.30;99.90
14182;DHT22;7171;50.936;6.764;2023-03-31T02:03:59;13.30;99.90
14182;DHT22;7171;50.936;6.764;2023-03-31T02:06:29;13.30;99.90
14182;DHT22;7171;50.936;6.764;2023-03-31T02:09:01;13.30;99.90
14182;DHT22;7171;50.936;6.764;2023-03-31T02:11:31;13.30;99.90
14182;DHT22;7171;50.936;6.764;2023-03-31T02:13:59;13.30;99.90
14182;DHT22;7171;50.936;6.764;2023-03-31T02:16:32;13.30;99.90
14182;DHT22;7171;50.936;6.764;2023-03-31T02:19:03;13.40;99.90
14182;DHT22;7171;50.936;6.764;2023-03-31T02:21:32;13.70;99.90
14182;DHT22;7171;50.936;6.764;2023-03-31T02:24:02;13.90;99.90
14182;DHT22;7171;50.936;6.764;2023-03-31T02:26:36;14.50;99.90
14182;DHT22;7171;50.936;6.764;2023-03-31T02:29:05;14.20;99.90
14182;DHT22;7171;50.936;6.764;2023-03-31T02:31:37;13.90;99.90
14182;DHT22;7171;50.936;6.764;2023-03-31T02:34:09;13.70;99.90
14182;DHT22;7171;50.936;6.764;2023-03-31T02:36:36;13.60;99.90
14182;DHT22;7171;50.936;6.764;2023-03-31T02:39:07;13.50;99.90
14182;DHT22;7171;50.936;6.764;2023-03-31T02:41:36;13.30;99.90
14182;DHT22;7171;50.936;6.764;2023-03-31T02:44:03;13.30;99.90
14182;DHT22;7171;50.936;6.764;2023-03-31T02:46:30;13.20;99.90
14182;DHT22;7171;50.936;6.764;2023-03-31T02:49:00;13.20;99.90
14182;DHT22;7171;50.936;6.764;2023-03-31T02:51:42;13.20;99.90
14182;DHT22;7171;50.936;6.764;2023-03-31T02:54:30;13.20;99.90
14182;DHT22;7171;50.936;6.764;2023-03-31T02:57:17;13.10;99.90
14182;DHT22;7171;50.936;6.764;2023-03-31T02:59:52;13.10;99.90
14182;DHT22;7171;50.936;6.764;2023-03-31T03:02:28;13.10;99.90
14182;DHT22;7171;50.936;6.764;2023-03-31T03:05:07;13.10;99.90
14182;DHT22;7171;50.936;6.764;2023-03-31T03:07:43;13.00;99.90
14182;DHT22;7171;50.936;6.764;2023-03-31T03:10:17;13.00;99.90
14182;DHT22;7171;50.936;6.764;2023-03-31T03:12:51;13.00;99.90
14182;DHT22;7171;50.936;6.764;2023-03-31T03:15:24;13.00;99.90
14182;DHT22;7171;50.936;6.764;2023-03-31T03:17:52;13.00;99.90
14182;DHT22;7171;50.936;6.764;2023-03-31T03:20:21;13.00;99.90
14182;DHT22;7171;50.936;6.764;2023-03-31T03:22:48;13.00;99.90
14182;DHT22;7171;50.936;6.764;2023-03-31T03:25:16;12.90;99.90
14182;DHT22;7171;50.936;6.764;2023-03-31T03:27:45;12.90;99.90
14182;DHT22;7171;50.936;6.764;2023-03-31T03:30:13;12.90;99.90
14182;DHT22;7171;50.936;6.764;2023-03-31T03:32:40;12.90;99.90
14182;DHT22;7171;50.936;6.764;2023-03-31T03:35:08;12.90;99.90
14182;DHT22;7171;50.936;6.764;2023-03-31T03:37:35;12.90;99.90
14182;DHT22;7171;50.936;6.764;2023-03-31T03:40:03;12.90;99.90
14182;DHT22;7171;50.936;6.764;2023-03-31T03:42:31;12.90;99.90
14182;DHT22;7171;50.936;6.764;2023-03-31T03:44:57;12.90;99.90
14182;DHT22;7171;50.936;6.764;2023-03-31T03:47:26;12.90;99.90
14182;DHT22;7171;50.936;6.764;2023-03-31T03:49:53;12.90;99.90
14182;DHT22;7171;50.936;6.764;2023-03-31T03:52:19;12.90;99.90
14182;DHT22;7171;50.936;6.764;2023-03-31T03:54:46;12.90;99.90
14182;DHT22;7171;50.936;6.764;2023-03-31T03:57:13;12.90;99.90
14182;DHT22;7171;50.936;6.764;2023-03-31T03:59:41;13.00;99.90
14182;DHT22;7171;50.936;6.764;2023-03-31T04:02:07;13.10;99.90
14182;DHT22;7171;50.936;6.764;2023-03-31T04:04:36;13.10;99.90
14182;DHT22;7171;50.936;6.764;2023-03-31T04:07:02;13.10;99.90
14182;DHT22;7171;50.936;6.764;2023-03-31T04:09:29;13.10;99.90
14182;DHT22;7171;50.936;6.764;2023-03-31T04:11:56;12.90;99.90
14182;DHT22;7171;50.936;6.764;2023-03-31T04:14:23;13.10;99.90
14182;DHT22;7171;50.936;6.764;2023-03-31T04:16:50;13.10;99.90
14182;DHT22;7171;50.936;6.764;2023-03-31T04:21:51;13.10;99.90
14182;DHT22;7171;50.936;6.764;2023-03-31T04:26:55;13.10;99.90
14182;DHT22;7171;50.936;6.764;2023-03-31T04:29:22;13.10;99.90
14182;DHT22;7171;50.936;6.764;2023-03-31T04:31:51;13.10;99.90
14182;DHT22;7171;50.936;6.764;2023-03-31T04:34:18;13.10;99.90
14182;DHT22;7171;50.936;6.764;2023-03-31T04:36:52;13.10;99.90
14182;DHT22;7171;50.936;6.764;2023-03-31T04:39:21;13.00;99.90
14182;DHT22;7171;50.936;6.764;2023-03-31T04:41:51;13.00;99.90
14182;DHT22;7171;50.936;6.764;2023-03-31T04:44:18;13.00;99.90
14182;DHT22;7171;50.936;6.764;2023-03-31T04:46:45;13.00;99.90
14182;DHT22;7171;50.936;6.764;2023-03-31T04:49:13;12.90;99.90
14182;DHT22;7171;50.936;6.764;2023-03-31T04:51:39;12.90;99.90
14182;DHT22;7171;50.936;6.764;2023-03-31T04:54:08;12.90;99.90
14182;DHT22;7171;50.936;6.764;2023-03-31T04:56:34;12.90;99.90
14182;DHT22;7171;50.936;6.764;2023-03-31T04:59:01;12.90;99.90
14182;DHT22;7171;50.936;6.764;2023-03-31T05:01:29;12.90;99.90
14182;DHT22;7171;50.936;6.764;2023-03-31T05:04:00;12.80;99.90
14182;DHT22;7171;50.936;6.764;2023-03-31T05:06:27;12.80;99.90
14182;DHT22;7171;50.936;6.764;2023-03-31T05:08:54;12.80;99.90
14182;DHT22;7171;50.936;6.764;2023-03-31T05:11:22;12.80;99.90
14182;DHT22;7171;50.936;6.764;2023-03-31T05:13:49;12.80;99.90
14182;DHT22;7171;50.936;6.764;2023-03-31T05:16:16;12.80;99.90
14182;DHT22;7171;50.936;6.764;2023-03-31T05:18:43;12.80;99.90
14182;DHT22;7171;50.936;6.764;2023-03-31T05:21:12;12.80;99.90
14182;DHT22;7171;50.936;6.764;2023-03-31T05:23:39;12.80;99.90
14182;DHT22;7171;50.936;6.764;2023-03-31T05:26:06;12.80;99.90
14182;DHT22;7171;50.936;6.764;2023-03-31T05:28:35;12.80;99.90
14182;DHT22;7171;50.936;6.764;2023-03-31T05:31:03;12.80;99.90
14182;DHT22;7171;50.936;6.764;2023-03-31T05:33:30;12.80;99.90
14182;DHT22;7171;50.936;6.764;2023-03-31T05:35:58;12.80;99.90
14182;DHT22;7171;50.936;6.764;2023-03-31T05:38:26;12.80;99.90
14182;DHT22;7171;50.936;6.764;2023-03-31T05:40:55;12.90;99.90
14182;DHT22;7171;50.936;6.764;2023-03-31T05:43:22;12.90;99.90
14182;DHT22;7171;50.936;6.764;2023-03-31T05:45:51;12.90;99.90
14182;DHT22;7171;50.936;6.764;2023-03-31T05:48:18;12.90;99.90
14182;DHT22;7171;50.936;6.764;2023-03-31T05:50:45;12.90;99.90
14182;DHT22;7171;50.936;6.764;2023-03-31T05:53:12;12.90;99.90
14182;DHT22;7171;50.936;6.764;2023-03-31T05:55:39;12.90;99.90
14182;DHT22;7171;50.936;6.764;2023-03-31T05:58:06;12.90;99.90
14182;DHT22;7171;50.936;6.764;2023-03-31T06:00:34;13.00;99.90
14182;DHT22;7171;50.936;6.764;2023-03-31T06:03:03;13.00;99.90
14182;DHT22;7171;50.936;6.764;2023-03-31T06:05:32;13.00;99.90
14182;DHT22;7171;50.936;6.764;2023-03-31T06:07:59;13.00;99.90
14182;DHT22;7171;50.936;6.764;2023-03-31T06:10:26;13.00;99.90
14182;DHT22;7171;50.936;6.764;2023-03-31T06:12:52;13.00;99.90
14182;DHT22;7171;50.936;6.764;2023-03-31T06:15:19;12.90;99.90
14182;DHT22;7171;50.936;6.764;2023-03-31T06:17:46;12.90;99.90
14182;DHT22;7171;50.936;6.764;2023-03-31T06:20:14;12.90;99.90
14182;DHT22;7171;50.936;6.764;2023-03-31T06:22:41;12.90;99.90
14182;DHT22;7171;50.936;6.764;2023-03-31T06:25:08;12.90;99.90
14182;DHT22;7171;50.936;6.764;2023-03-31T06:27:35;12.90;99.90
14182;DHT22;7171;50.936;6.764;2023-03-31T06:30:02;12.90;99.90
14182;DHT22;7171;50.936;6.764;2023-03-31T06:32:29;12.90;99.90
14182;DHT22;7171;50.936;6.764;2023-03-31T06:34:55;12.90;99.90
14182;DHT22;7171;50.936;6.764;2023-03-31T06:37:23;12.90;99.90
14182;DHT22;7171;50.936;6.764;2023-03-31T06:39:50;12.90;99.90
14182;DHT22;7171;50.936;6.764;2023-03-31T06:42:17;12.90;99.90
14182;DHT22;7171;50.936;6.764;2023-03-31T06:44:44;12.80;99.90
14182;DHT22;7171;50.936;6.764;2023-03-31T06:47:12;12.80;99.90
14182;DHT22;7171;50.936;6.764;2023-03-31T06:49:39;12.80;99.90
14182;DHT22;7171;50.936;6.764;2023-03-31T06:52:05;12.80;99.90
14182;DHT22;7171;50.936;6.764;2023-03-31T06:54:34;12.80;99.90
14182;DHT22;7171;50.936;6.764;2023-03-31T06:57:00;12.80;99.90
14182;DHT22;7171;50.936;6.764;2023-03-31T06:59:27;12.80;99.90
14182;DHT22;7171;50.936;6.764;2023-03-31T07:01:54;12.80;99.90
14182;DHT22;7171;50.936;6.764;2023-03-31T07:04:20;12.80;99.90
14182;DHT22;7171;50.936;6.764;2023-03-31T07:06:47;12.70;99.90
14182;DHT22;7171;50.936;6.764;2023-03-31T07:09:14;12.90;99.90
14182;DHT22;7171;50.936;6.764;2023-03-31T07:11:42;12.90;99.90
14182;DHT22;7171;50.936;6.764;2023-03-31T07:14:09;12.80;99.90
14182;DHT22;7171;50.936;6.764;2023-03-31T07:16:36;12.90;99.90
14182;DHT22;7171;50.936;6.764;2023-03-31T07:19:03;13.00;99.90
14182;DHT22;7171;50.936;6.764;2023-03-31T07:21:30;13.00;99.90
14182;DHT22;7171;50.936;6.764;2023-03-31T07:23:57;13.00;99.90
14182;DHT22;7171;50.936;6.764;2023-03-31T07:26:24;13.10;99.90
14182;DHT22;7171;50.936;6.764;2023-03-31T07:28:52;13.10;99.90
14182;DHT22;7171;50.936;6.764;2023-03-31T07:31:21;13.10;99.90
14182;DHT22;7171;50.936;6.764;2023-03-31T07:33:48;13.20;99.90
14182;DHT22;7171;50.936;6.764;2023-03-31T07:36:15;13.20;99.90
14182;DHT22;7171;50.936;6.764;2023-03-31T07:38:44;13.20;99.90
14182;DHT22;7171;50.936;6.764;2023-03-31T07:41:15;13.30;99.90
14182;DHT22;7171;50.936;6.764;2023-03-31T07:43:43;13.30;99.90
14182;DHT22;7171;50.936;6.764;2023-03-31T07:46:16;13.40;99.90
14182;DHT22;7171;50.936;6.764;2023-03-31T07:48:43;13.40;99.90
14182;DHT22;7171;50.936;6.764;2023-03-31T07:51:11;13.40;99.90
14182;DHT22;7171;50.936;6.764;2023-03-31T07:53:38;13.50;99.90
14182;DHT22;7171;50.936;6.764;2023-03-31T07:56:05;13.50;99.90
14182;DHT22;7171;50.936;6.764;2023-03-31T07:58:32;13.60;99.90
14182;DHT22;7171;50.936;6.764;2023-03-31T08:00:59;13.60;99.90
14182;DHT22;7171;50.936;6.764;2023-03-31T08:03:27;13.70;99.90
14182;DHT22;7171;50.936;6.764;2023-03-31T08:05:56;13.70;99.90
14182;DHT22;7171;50.936;6.764;2023-03-31T08:08:23;13.80;99.90
14182;DHT22;7171;50.936;6.764;2023-03-31T08:10:50;13.80;99.90
14182;DHT22;7171;50.936;6.764;2023-03-31T08:13:17;13.80;99.90
14182;DHT22;7171;50.936;6.764;2023-03-31T08:15:44;13.90;99.90
14182;DHT22;7171;50.936;6.764;2023-03-31T08:18:11;13.90;99.90
14182;DHT22;7171;50.936;6.764;2023-03-31T08:20:39;13.90;99.90
14182;DHT22;7171;50.936;6.764;2023-03-31T08:23:05;14.00;99.90
14182;DHT22;7171;50.936;6.764;2023-03-31T08:25:35;14.00;99.90
14182;DHT22;7171;50.936;6.764;2023-03-31T08:28:02;14.10;99.90
14182;DHT22;7171;50.936;6.764;2023-03-31T08:30:29;14.10;99.90
14182;DHT22;7171;50.936;6.764;2023-03-31T08:32:55;14.10;99.90
14182;DHT22;7171;50.936;6.764;2023-03-31T08:35:22;14.20;99.90
14182;DHT22;7171;50.936;6.764;2023-03-31T08:37:50;14.20;99.90
14182;DHT22;7171;50.936;6.764;2023-03-31T08:40:20;14.30;99.90
14182;DHT22;7171;50.936;6.764;2023-03-31T08:42:49;14.30;99.90
14182;DHT22;7171;50.936;6.764;2023-03-31T08:45:20;14.30;99.90
14182;DHT22;7171;50.936;6.764;2023-03-31T08:47:51;14.40;99.90
14182;DHT22;7171;50.936;6.764;2023-03-31T08:50:22;14.50;99.90
14182;DHT22;7171;50.936;6.764;2023-03-31T08:52:56;14.50;99.90
14182;DHT22;7171;50.936;6.764;2023-03-31T08:55:26;14.60;99.90
14182;DHT22;7171;50.936;6.764;2023-03-31T08:58:00;14.70;99.90
14182;DHT22;7171;50.936;6.764;2023-03-31T09:00:37;14.70;99.90
14182;DHT22;7171;50.936;6.764;2023-03-31T09:03:13;14.80;99.90
14182;DHT22;7171;50.936;6.764;2023-03-31T09:05:48;14.90;99.90
14182;DHT22;7171;50.936;6.764;2023-03-31T09:08:27;15.00;99.90
14182;DHT22;7171;50.936;6.764;2023-03-31T09:11:06;15.10;99.90
14182;DHT22;7171;50.936;6.764;2023-03-31T09:14:04;15.20;99.90
14182;DHT22;7171;50.936;6.764;2023-03-31T09:16:38;15.30;99.90
14182;DHT22;7171;50.936;6.764;2023-03-31T09:19:13;15.40;99.90
14182;DHT22;7171;50.936;6.764;2023-03-31T09:21:43;15.50;99.90
14182;DHT22;7171;50.936;6.764;2023-03-31T09:24:16;15.60;99.90
14182;DHT22;7171;50.936;6.764;2023-03-31T09:26:47;15.60;99.90
14182;DHT22;7171;50.936;6.764;2023-03-31T09:29:21;15.60;99.90
14182;DHT22;7171;50.936;6.764;2023-03-31T09:31:49;15.60;99.90
14182;DHT22;7171;50.936;6.764;2023-03-31T09:34:28;15.60;99.90
14182;DHT22;7171;50.936;6.764;2023-03-31T09:36:55;15.60;99.90
14182;DHT22;7171;50.936;6.764;2023-03-31T09:39:24;15.60;99.90
14182;DHT22;7171;50.936;6.764;2023-03-31T09:41:52;15.60;99.90
14182;DHT22;7171;50.936;6.764;2023-03-31T09:44:26;15.60;99.90
14182;DHT22;7171;50.936;6.764;2023-03-31T09:46:54;15.60;99.90
14182;DHT22;7171;50.936;6.764;2023-03-31T09:49:22;15.60;99.90
14182;DHT22;7171;50.936;6.764;2023-03-31T09:52:03;15.60;99.90
14182;DHT22;7171;50.936;6.764;2023-03-31T09:54:37;15.60;99.90
14182;DHT22;7171;50.936;6.764;2023-03-31T09:57:14;15.60;99.90
14182;DHT22;7171;50.936;6.764;2023-03-31T09:59:41;15.60;99.90
14182;DHT22;7171;50.936;6.764;2023-03-31T10:02:33;15.70;99.90
14182;DHT22;7171;50.936;6.764;2023-03-31T10:05:01;15.70;99.90
14182;DHT22;7171;50.936;6.764;2023-03-31T10:07:28;15.70;99.90
14182;DHT22;7171;50.936;6.764;2023-03-31T10:10:00;15.70;99.90
14182;DHT22;7171;50.936;6.764;2023-03-31T10:12:28;15.70;99.90
14182;DHT22;7171;50.936;6.764;2023-03-31T10:15:13;15.70;99.90
14182;DHT22;7171;50.936;6.764;2023-03-31T10:17:43;15.60;99.90
14182;DHT22;7171;50.936;6.764;2023-03-31T10:20:19;15.60;99.90
14182;DHT22;7171;50.936;6.764;2023-03-31T10:22:46;15.60;99.90
14182;DHT22;7171;50.936;6.764;2023-03-31T10:25:16;15.60;99.90
14182;DHT22;7171;50.936;6.764;2023-03-31T10:27:47;15.70;99.90
14182;DHT22;7171;50.936;6.764;2023-03-31T10:30:20;15.70;99.90
14182;DHT22;7171;50.936;6.764;2023-03-31T10:32:47;15.80;99.90
14182;DHT22;7171;50.936;6.764;2023-03-31T10:35:21;15.80;99.90
14182;DHT22;7171;50.936;6.764;2023-03-31T10:37:54;15.80;99.90
14182;DHT22;7171;50.936;6.764;2023-03-31T10:40:24;15.90;99.90
14182;DHT22;7171;50.936;6.764;2023-03-31T10:42:59;16.00;99.90
14182;DHT22;7171;50.936;6.764;2023-03-31T10:45:28;16.00;99.90
14182;DHT22;7171;50.936;6.764;2023-03-31T10:47:57;16.10;99.90
14182;DHT22;7171;50.936;6.764;2023-03-31T10:50:29;16.00;99.90
14182;DHT22;7171;50.936;6.764;2023-03-31T10:53:02;16.00;99.90
14182;DHT22;7171;50.936;6.764;2023-03-31T10:55:35;15.90;99.90
14182;DHT22;7171;50.936;6.764;2023-03-31T10:58:17;15.90;99.90
14182;DHT22;7171;50.936;6.764;2023-03-31T11:00:56;15.80;99.90
14182;DHT22;7171;50.936;6.764;2023-03-31T11:03:37;15.80;99.90
14182;DHT22;7171;50.936;6.764;2023-03-31T11:06:11;15.70;99.90
14182;DHT22;7171;50.936;6.764;2023-03-31T11:08:48;15.70;99.90
14182;DHT22;7171;50.936;6.764;2023-03-31T11:11:30;15.70;99.90
14182;DHT22;7171;50.936;6.764;2023-03-31T11:14:02;15.60;99.90
14182;DHT22;7171;50.936;6.764;2023-03-31T11:16:39;15.40;99.90
14182;DHT22;7171;50.936;6.764;2023-03-31T11:19:15;15.20;99.90
14182;DHT22;7171;50.936;6.764;2023-03-31T11:21:51;15.00;99.90
14182;DHT22;7171;50.936;6.764;2023-03-31T11:24:29;14.90;99.90
14182;DHT22;7171;50.936;6.764;2023-03-31T11:27:06;14.70;99.90
14182;DHT22;7171;50.936;6.764;2023-03-31T11:29:39;14.60;99.90
14182;DHT22;7171;50.936;6.764;2023-03-31T11:32:29;14.50;99.90
14182;DHT22;7171;50.936;6.764;2023-03-31T11:35:09;14.50;99.90
14182;DHT22;7171;50.936;6.764;2023-03-31T11:37:51;14.50;99.90
14182;DHT22;7171;50.936;6.764;2023-03-31T11:40:33;14.50;99.90
14182;DHT22;7171;50.936;6.764;2023-03-31T11:43:06;14.60;99.90
14182;DHT22;7171;50.936;6.764;2023-03-31T11:45:38;14.60;99.90
14182;DHT22;7171;50.936;6.764;2023-03-31T11:48:13;14.70;99.90
14182;DHT22;7171;50.936;6.764;2023-03-31T11:50:44;14.80;99.90
14182;DHT22;7171;50.936;6.764;2023-03-31T11:53:15;14.80;99.90
14182;DHT22;7171;50.936;6.764;2023-03-31T11:55:44;14.90;99.90
14182;DHT22;7171;50.936;6.764;2023-03-31T11:58:16;15.00;99.90
14182;DHT22;7171;50.936;6.764;2023-03-31T12:00:46;15.00;99.90
14182;DHT22;7171;50.936;6.764;2023-03-31T12:03:19;15.10;99.90
14182;DHT22;7171;50.936;6.764;2023-03-31T12:05:50;15.10;99.90
14182;DHT22;7171;50.936;6.764;2023-03-31T12:08:23;15.20;99.90
14182;DHT22;7171;50.936;6.764;2023-03-31T12:10:54;15.30;99.90
14182;DHT22;7171;50.936;6.764;2023-03-31T12:13:43;15.40;99.90
14182;DHT22;7171;50.936;6.764;2023-03-31T12:16:14;15.30;99.90
14182;DHT22;7171;50.936;6.764;2023-03-31T12:18:48;15.40;99.90
14182;DHT22;7171;50.936;6.764;2023-03-31T12:21:21;15.50;99.90
14182;DHT22;7171;50.936;6.764;2023-03-31T12:23:49;15.60;99.90
14182;DHT22;7171;50.936;6.764;2023-03-31T12:26:28;15.60;99.90
14182;DHT22;7171;50.936;6.764;2023-03-31T12:29:03;15.60;99.90
14182;DHT22;7171;50.936;6.764;2023-03-31T12:31:34;15.70;99.90
14182;DHT22;7171;50.936;6.764;2023-03-31T12:34:04;15.70;99.90
14182;DHT22;7171;50.936;6.764;2023-03-31T12:36:41;15.70;99.90
14182;DHT22;7171;50.936;6.764;2023-03-31T12:39:26;15.70;99.90
14182;DHT22;7171;50.936;6.764;2023-03-31T12:42:10;15.70;99.90
14182;DHT22;7171;50.936;6.764;2023-03-31T12:44:51;15.70;99.90
14182;DHT22;7171;50.936;6.764;2023-03-31T12:50:22;15.70;99.90
14182;DHT22;7171;50.936;6.764;2023-03-31T12:52:58;15.70;99.90
14182;DHT22;7171;50.936;6.764;2023-03-31T12:55:35;15.60;99.90
14182;DHT22;7171;50.936;6.764;2023-03-31T12:58:35;15.60;99.90
14182;DHT22;7171;50.936;6.764;2023-03-31T13:01:09;15.60;99.90
14182;DHT22;7171;50.936;6.764;2023-03-31T13:09:43;15.50;99.90
14182;DHT22;7171;50.936;6.764;2023-03-31T13:12:16;15.40;99.90
14182;DHT22;7171;50.936;6.764;2023-03-31T13:14:45;15.40;99.90
14182;DHT22;7171;50.936;6.764;2023-03-31T13:17:24;15.30;99.90
14182;DHT22;7171;50.936;6.764;2023-03-31T13:19:52;15.30;99.90
14182;DHT22;7171;50.936;6.764;2023-03-31T13:22:30;15.30;99.90
14182;DHT22;7171;50.936;6.764;2023-03-31T13:28:33;15.40;99.90
14182;DHT22;7171;50.936;6.764;2023-03-31T13:31:04;15.40;99.90
14182;DHT22;7171;50.936;6.764;2023-03-31T13:33:36;15.40;99.90
14182;DHT22;7171;50.936;6.764;2023-03-31T13:41:55;15.50;99.90
14182;DHT22;7171;50.936;6.764;2023-03-31T13:44:47;15.50;99.90
14182;DHT22;7171;50.936;6.764;2023-03-31T13:47:39;15.50;99.90
14182;DHT22;7171;50.936;6.764;2023-03-31T13:53:31;15.70;99.90
14182;DHT22;7171;50.936;6.764;2023-03-31T13:56:11;15.70;99.90
14182;DHT22;7171;50.936;6.764;2023-03-31T13:58:57;15.80;99.90
14182;DHT22;7171;50.936;6.764;2023-03-31T14:01:49;15.90;99.90
14182;DHT22;7171;50.936;6.764;2023-03-31T14:04:34;16.00;99.90
14182;DHT22;7171;50.936;6.764;2023-03-31T14:07:07;16.00;99.90
14182;DHT22;7171;50.936;6.764;2023-03-31T14:09:38;16.10;99.90
14182;DHT22;7171;50.936;6.764;2023-03-31T14:12:18;16.10;99.90
14182;DHT22;7171;50.936;6.764;2023-03-31T14:14:46;16.10;99.90
14182;DHT22;7171;50.936;6.764;2023-03-31T14:17:13;16.10;99.90
14182;DHT22;7171;50.936;6.764;2023-03-31T14:19:52;16.10;99.90
14182;DHT22;7171;50.936;6.764;2023-03-31T14:22:29;16.10;99.90
14182;DHT22;7171;50.936;6.764;2023-03-31T14:25:08;16.10;99.90
14182;DHT22;7171;50.936;6.764;2023-03-31T14:27:45;16.10;99.90
14182;DHT22;7171;50.936;6.764;2023-03-31T14:30:20;16.10;99.90
14182;DHT22;7171;50.936;6.764;2023-03-31T14:33:08;16.10;99.90
14182;DHT22;7171;50.936;6.764;2023-03-31T14:35:41;16.10;99.90
14182;DHT22;7171;50.936;6.764;2023-03-31T14:38:15;16.10;99.90
14182;DHT22;7171;50.936;6.764;2023-03-31T14:40:47;16.10;99.90
14182;DHT22;7171;50.936;6.764;2023-03-31T14:43:19;16.00;99.90
14182;DHT22;7171;50.936;6.764;2023-03-31T14:45:47;16.00;99.90
14182;DHT22;7171;50.936;6.764;2023-03-31T14:48:18;16.00;99.90
14182;DHT22;7171;50.936;6.764;2023-03-31T14:50:46;16.00;99.90
14182;DHT22;7171;50.936;6.764;2023-03-31T14:53:14;16.00;99.90
14182;DHT22;7171;50.936;6.764;2023-03-31T14:55:41;16.00;99.90
14182;DHT22;7171;50.936;6.764;2023-03-31T14:58:15;16.00;99.90
14182;DHT22;7171;50.936;6.764;2023-03-31T15:00:46;15.90;99.90
14182;DHT22;7171;50.936;6.764;2023-03-31T15:03:14;15.90;99.90
14182;DHT22;7171;50.936;6.764;2023-03-31T15:05:42;15.90;99.90
14182;DHT22;7171;50.936;6.764;2023-03-31T15:08:14;15.90;99.90
14182;DHT22;7171;50.936;6.764;2023-03-31T15:10:47;15.90;99.90
14182;DHT22;7171;50.936;6.764;2023-03-31T15:13:19;15.90;99.90
14182;DHT22;7171;50.936;6.764;2023-03-31T15:15:46;15.90;99.90
14182;DHT22;7171;50.936;6.764;2023-03-31T15:18:14;15.90;99.90
14182;DHT22;7171;50.936;6.764;2023-03-31T15:20:42;15.90;99.90
14182;DHT22;7171;50.936;6.764;2023-03-31T15:23:20;15.80;99.90
14182;DHT22;7171;50.936;6.764;2023-03-31T15:25:51;15.70;99.90
14182;DHT22;7171;50.936;6.764;2023-03-31T15:28:20;15.70;99.90
14182;DHT22;7171;50.936;6.764;2023-03-31T15:30:49;15.60;99.90
14182;DHT22;7171;50.936;6.764;2023-03-31T15:33:21;15.50;99.90
14182;DHT22;7171;50.936;6.764;2023-03-31T15:35:48;15.40;99.90
14182;DHT22;7171;50.936;6.764;2023-03-31T15:38:16;15.40;99.90
14182;DHT22;7171;50.936;6.764;2023-03-31T15:40:43;15.30;99.90
14182;DHT22;7171;50.936;6.764;2023-03-31T15:43:15;15.20;99.90
14182;DHT22;7171;50.936;6.764;2023-03-31T15:45:48;15.10;99.90
14182;DHT22;7171;50.936;6.764;2023-03-31T15:48:18;15.00;99.90
14182;DHT22;7171;50.936;6.764;2023-03-31T15:50:46;14.90;99.90
14182;DHT22;7171;50.936;6.764;2023-03-31T15:53:26;14.80;99.90
14182;DHT22;7171;50.936;6.764;2023-03-31T15:55:54;14.70;99.90
14182;DHT22;7171;50.936;6.764;2023-03-31T15:58:45;14.70;99.90
14182;DHT22;7171;50.936;6.764;2023-03-31T16:01:14;14.60;99.90
14182;DHT22;7171;50.936;6.764;2023-03-31T16:03:44;14.50;99.90
14182;DHT22;7171;50.936;6.764;2023-03-31T16:06:18;14.40;99.90
14182;DHT22;7171;50.936;6.764;2023-03-31T16:08:47;14.30;99.90
14182;DHT22;7171;50.936;6.764;2023-03-31T16:11:19;14.30;99.90
14182;DHT22;7171;50.936;6.764;2023-03-31T16:13:53;14.30;99.90
14182;DHT22;7171;50.936;6.764;2023-03-31T16:16:24;14.30;99.90
14182;DHT22;7171;50.936;6.764;2023-03-31T16:18:54;14.20;99.90
14182;DHT22;7171;50.936;6.764;2023-03-31T16:21:32;14.10;99.90
14182;DHT22;7171;50.936;6.764;2023-03-31T16:24:00;14.10;99.90
14182;DHT22;7171;50.936;6.764;2023-03-31T16:26:28;14.10;99.90
14182;DHT22;7171;50.936;6.764;2023-03-31T16:28:55;14.00;99.90
14182;DHT22;7171;50.936;6.764;2023-03-31T16:31:32;14.00;99.90
14182;DHT22;7171;50.936;6.764;2023-03-31T16:34:03;13.90;99.90
14182;DHT22;7171;50.936;6.764;2023-03-31T16:36:30;13.90;99.90
14182;DHT22;7171;50.936;6.764;2023-03-31T16:38:58;13.80;99.90